sensor_id;sensor_type;location;lat;lon;timestamp;noise_LAeq;noise_LA_min;noise_LA_max;noise_LA01;noise_LA95
38366;Laerm;943;51.568;6.998;2024-01-06T00:02:02;39.80;36.38;52.22;;
38366;Laerm;943;51.568;6.998;2024-01-06T00:04:32;40.25;37.16;58.67;;
38366;Laerm;943;51.568;6.998;2024-01-06T00:07:02;40.00;35.89;45.90;;
38366;Laerm;943;51.568;6.998;2024-01-06T00:09:31;39.38;35.76;46.06;;
38366;Laerm;943;51.568;6.998;2024-01-06T00:12:03;40.20;36.66;45.25;;
38366;Laerm;943;51.568;6.998;2024-01-06T00:14:34;42.27;37.49;49.09;;
38366;Laerm;943;51.568;6.998;2024-01-06T00:17:04;39.25;35.97;44.92;;
38366;Laerm;943;51.568;6.998;2024-01-06T00:19:34;40.04;35.93;53.16;;
38366;Laerm;943;51.568;6.998;2024-01-06T00:22:04;40.68;36.47;53.48;;
38366;Laerm;943;51.568;6.998;2024-01-06T00:24:33;40.80;36.36;58.41;;
38366;Laerm;943;51.568;6.998;2024-01-06T00:27:04;40.11;36.55;48.50;;
38366;Laerm;943;51.568;6.998;2024-01-06T00:29:33;39.00;35.40;44.33;;
38366;Laerm;943;51.568;6.998;2024-01-06T00:32:04;40.13;36.20;46.80;;
38366;Laerm;943;51.568;6.998;2024-01-06T00:34:34;39.66;36.07;44.47;;
38366;Laerm;943;51.568;6.998;2024-01-06T00:37:04;39.69;35.69;48.47;;
38366;Laerm;943;51.568;6.998;2024-01-06T00:39:33;39.64;35.60;47.62;;
38366;Laerm;943;51.568;6.998;2024-01-06T00:42:04;39.76;35.88;46.52;;
38366;Laerm;943;51.568;6.998;2024-01-06T00:44:37;40.18;36.80;48.82;;
38366;Laerm;943;51.568;6.998;2024-01-06T00:47:07;39.71;36.36;48.43;;
38366;Laerm;943;51.568;6.998;2024-01-06T00:49:37;39.65;35.56;45.80;;
38366;Laerm;943;51.568;6.998;2024-01-06T00:52:07;38.25;35.21;44.55;;
38366;Laerm;943;51.568;6.998;2024-01-06T00:54:36;38.69;36.25;45.75;;
38366;Laerm;943;51.568;6.998;2024-01-06T00:57:07;37.92;35.30;44.50;;
38366;Laerm;943;51.568;6.998;2024-01-06T00:59:38;38.87;35.61;46.55;;
38366;Laerm;943;51.568;6.998;2024-01-06T01:02:07;39.15;35.83;49.06;;
38366;Laerm;943;51.568;6.998;2024-01-06T01:04:38;38.87;35.63;50.79;;
38366;Laerm;943;51.568;6.998;2024-01-06T01:07:07;38.47;35.41;46.33;;
38366;Laerm;943;51.568;6.998;2024-01-06T01:09:37;38.10;34.42;46.33;;
38366;Laerm;943;51.568;6.998;2024-01-06T01:12:06;38.00;34.32;42.99;;
38366;Laerm;943;51.568;6.998;2024-01-06T01:14:36;38.12;35.01;45.28;;
38366;Laerm;943;51.568;6.998;2024-01-06T01:17:06;40.32;35.14;56.17;;
38366;Laerm;943;51.568;6.998;2024-01-06T01:19:35;39.74;35.60;46.55;;
38366;Laerm;943;51.568;6.998;2024-01-06T01:22:06;38.76;35.29;44.83;;
38366;Laerm;943;51.568;6.998;2024-01-06T01:24:35;39.30;36.36;44.33;;
38366;Laerm;943;51.568;6.998;2024-01-06T01:27:05;39.18;34.96;48.37;;
38366;Laerm;943;51.568;6.998;2024-01-06T01:29:36;38.54;35.15;46.43;;
38366;Laerm;943;51.568;6.998;2024-01-06T01:32:06;40.33;35.86;49.49;;
38366;Laerm;943;51.568;6.998;2024-01-06T01:34:36;39.49;35.76;47.75;;
38366;Laerm;943;51.568;6.998;2024-01-06T01:37:06;41.54;37.17;47.65;;
38366;Laerm;943;51.568;6.998;2024-01-06T01:39:35;40.08;36.58;49.21;;
38366;Laerm;943;51.568;6.998;2024-01-06T01:42:06;39.11;35.29;50.61;;
38366;Laerm;943;51.568;6.998;2024-01-06T01:44:35;40.37;36.14;55.07;;
38366;Laerm;943;51.568;6.998;2024-01-06T01:47:07;40.38;35.27;49.98;;
38366;Laerm;943;51.568;6.998;2024-01-06T01:49:38;38.77;35.11;48.90;;
38366;Laerm;943;51.568;6.998;2024-01-06T01:52:08;38.80;34.79;49.51;;
38366;Laerm;943;51.568;6.998;2024-01-06T01:54:38;39.27;35.61;48.90;;
38366;Laerm;943;51.568;6.998;2024-01-06T01:57:10;37.46;34.44;49.28;;
38366;Laerm;943;51.568;6.998;2024-01-06T01:59:58;38.37;35.12;45.02;;
38366;Laerm;943;51.568;6.998;2024-01-06T02:02:38;38.16;34.87;47.83;;
38366;Laerm;943;51.568;6.998;2024-01-06T02:05:09;37.92;34.61;46.00;;
38366;Laerm;943;51.568;6.998;2024-01-06T02:07:39;37.73;34.14;43.80;;
38366;Laerm;943;51.568;6.998;2024-01-06T02:10:09;38.94;34.31;47.87;;
38366;Laerm;943;51.568;6.998;2024-01-06T02:12:39;39.30;35.30;54.39;;
38366;Laerm;943;51.568;6.998;2024-01-06T02:15:09;40.54;35.89;55.05;;
38366;Laerm;943;51.568;6.998;2024-01-06T02:17:41;40.36;36.35;46.17;;
38366;Laerm;943;51.568;6.998;2024-01-06T02:20:14;38.95;35.06;47.54;;
38366;Laerm;943;51.568;6.998;2024-01-06T02:22:46;38.92;34.95;46.19;;
38366;Laerm;943;51.568;6.998;2024-01-06T02:25:17;40.94;34.63;53.11;;
38366;Laerm;943;51.568;6.998;2024-01-06T02:27:47;38.21;34.57;45.16;;
38366;Laerm;943;51.568;6.998;2024-01-06T02:30:17;39.48;35.35;49.48;;
38366;Laerm;943;51.568;6.998;2024-01-06T02:32:47;41.00;35.96;55.13;;
38366;Laerm;943;51.568;6.998;2024-01-06T02:35:16;40.39;36.16;47.53;;
38366;Laerm;943;51.568;6.998;2024-01-06T02:37:46;39.36;34.99;56.47;;
38366;Laerm;943;51.568;6.998;2024-01-06T02:40:15;38.78;34.56;47.49;;
38366;Laerm;943;51.568;6.998;2024-01-06T02:42:46;39.56;35.38;47.60;;
38366;Laerm;943;51.568;6.998;2024-01-06T02:45:15;40.16;34.38;49.70;;
38366;Laerm;943;51.568;6.998;2024-01-06T02:47:45;39.40;35.00;49.41;;
38366;Laerm;943;51.568;6.998;2024-01-06T02:50:15;37.65;34.17;47.64;;
38366;Laerm;943;51.568;6.998;2024-01-06T02:52:47;37.98;33.98;47.04;;
38366;Laerm;943;51.568;6.998;2024-01-06T02:55:17;38.84;34.96;51.52;;
38366;Laerm;943;51.568;6.998;2024-01-06T02:57:47;39.56;34.50;49.64;;
38366;Laerm;943;51.568;6.998;2024-01-06T03:00:17;38.87;34.76;44.77;;
38366;Laerm;943;51.568;6.998;2024-01-06T03:02:48;40.24;36.32;47.75;;
38366;Laerm;943;51.568;6.998;2024-01-06T03:05:18;38.65;35.44;48.56;;
38366;Laerm;943;51.568;6.998;2024-01-06T03:07:47;40.15;34.91;51.63;;
38366;Laerm;943;51.568;6.998;2024-01-06T03:10:17;39.51;33.88;48.94;;
38366;Laerm;943;51.568;6.998;2024-01-06T03:12:47;38.08;34.19;46.65;;
38366;Laerm;943;51.568;6.998;2024-01-06T03:15:17;42.46;35.13;55.20;;
38366;Laerm;943;51.568;6.998;2024-01-06T03:17:47;40.98;37.87;47.38;;
38366;Laerm;943;51.568;6.998;2024-01-06T03:20:18;43.30;35.02;56.63;;
38366;Laerm;943;51.568;6.998;2024-01-06T03:22:49;44.89;36.55;59.16;;
38366;Laerm;943;51.568;6.998;2024-01-06T03:25:19;42.01;36.78;55.85;;
38366;Laerm;943;51.568;6.998;2024-01-06T03:27:48;42.70;36.91;59.35;;
38366;Laerm;943;51.568;6.998;2024-01-06T03:30:18;45.32;35.23;66.62;;
38366;Laerm;943;51.568;6.998;2024-01-06T03:32:48;39.33;34.48;56.85;;
38366;Laerm;943;51.568;6.998;2024-01-06T03:35:17;41.59;36.58;54.95;;
38366;Laerm;943;51.568;6.998;2024-01-06T03:37:47;42.59;36.06;56.75;;
38366;Laerm;943;51.568;6.998;2024-01-06T03:40:18;41.08;35.15;59.74;;
38366;Laerm;943;51.568;6.998;2024-01-06T03:42:48;42.62;35.19;60.04;;
38366;Laerm;943;51.568;6.998;2024-01-06T03:45:18;42.79;36.17;60.76;;
38366;Laerm;943;51.568;6.998;2024-01-06T03:47:50;40.24;35.05;50.36;;
38366;Laerm;943;51.568;6.998;2024-01-06T03:50:20;41.87;36.46;52.38;;
38366;Laerm;943;51.568;6.998;2024-01-06T03:52:50;39.87;36.49;47.05;;
38366;Laerm;943;51.568;6.998;2024-01-06T03:55:19;42.37;35.71;56.23;;
38366;Laerm;943;51.568;6.998;2024-01-06T03:57:49;41.44;36.80;53.99;;
38366;Laerm;943;51.568;6.998;2024-01-06T04:00:19;41.23;37.57;56.23;;
38366;Laerm;943;51.568;6.998;2024-01-06T04:02:49;40.75;36.93;47.86;;
38366;Laerm;943;51.568;6.998;2024-01-06T04:05:18;41.96;36.96;51.58;;
38366;Laerm;943;51.568;6.998;2024-01-06T04:07:48;41.92;37.62;49.81;;
38366;Laerm;943;51.568;6.998;2024-01-06T04:10:18;40.05;35.49;50.63;;
38366;Laerm;943;51.568;6.998;2024-01-06T04:12:48;42.40;37.29;57.96;;
38366;Laerm;943;51.568;6.998;2024-01-06T04:15:17;41.02;37.31;51.20;;
38366;Laerm;943;51.568;6.998;2024-01-06T04:17:50;41.32;37.96;51.25;;
38366;Laerm;943;51.568;6.998;2024-01-06T04:20:23;40.04;36.65;46.36;;
38366;Laerm;943;51.568;6.998;2024-01-06T04:22:53;44.03;36.60;62.00;;
38366;Laerm;943;51.568;6.998;2024-01-06T04:25:23;44.11;36.94;59.96;;
38366;Laerm;943;51.568;6.998;2024-01-06T04:27:53;41.19;36.66;55.59;;
38366;Laerm;943;51.568;6.998;2024-01-06T04:30:26;42.26;36.97;54.61;;
38366;Laerm;943;51.568;6.998;2024-01-06T04:32:57;40.38;35.90;46.74;;
38366;Laerm;943;51.568;6.998;2024-01-06T04:35:27;41.25;36.80;58.14;;
38366;Laerm;943;51.568;6.998;2024-01-06T04:38:00;42.62;37.69;59.75;;
38366;Laerm;943;51.568;6.998;2024-01-06T04:40:31;40.60;36.29;50.69;;
38366;Laerm;943;51.568;6.998;2024-01-06T04:43:00;40.49;36.66;52.35;;
38366;Laerm;943;51.568;6.998;2024-01-06T04:45:30;40.81;35.04;53.54;;
38366;Laerm;943;51.568;6.998;2024-01-06T04:48:00;41.02;36.05;52.81;;
38366;Laerm;943;51.568;6.998;2024-01-06T04:50:30;43.82;37.71;58.30;;
38366;Laerm;943;51.568;6.998;2024-01-06T04:53:00;41.80;36.92;54.12;;
38366;Laerm;943;51.568;6.998;2024-01-06T04:55:29;41.13;36.18;49.69;;
38366;Laerm;943;51.568;6.998;2024-01-06T04:57:59;42.30;36.13;55.42;;
38366;Laerm;943;51.568;6.998;2024-01-06T05:00:28;42.50;37.21;53.99;;
38366;Laerm;943;51.568;6.998;2024-01-06T05:02:58;44.79;37.35;62.69;;
38366;Laerm;943;51.568;6.998;2024-01-06T05:05:28;43.70;37.45;60.21;;
38366;Laerm;943;51.568;6.998;2024-01-06T05:08:00;43.60;39.18;61.82;;
38366;Laerm;943;51.568;6.998;2024-01-06T05:10:29;41.49;35.50;58.34;;
38366;Laerm;943;51.568;6.998;2024-01-06T05:12:59;42.32;36.50;55.85;;
38366;Laerm;943;51.568;6.998;2024-01-06T05:15:29;40.33;35.23;48.88;;
38366;Laerm;943;51.568;6.998;2024-01-06T05:17:58;41.94;37.65;48.09;;
38366;Laerm;943;51.568;6.998;2024-01-06T05:20:28;41.15;36.89;52.17;;
38366;Laerm;943;51.568;6.998;2024-01-06T05:22:57;40.04;35.23;48.35;;
38366;Laerm;943;51.568;6.998;2024-01-06T05:25:27;39.62;36.34;43.92;;
38366;Laerm;943;51.568;6.998;2024-01-06T05:27:57;39.84;35.75;48.36;;
38366;Laerm;943;51.568;6.998;2024-01-06T05:30:27;39.94;34.86;47.25;;
38366;Laerm;943;51.568;6.998;2024-01-06T05:32:57;40.22;36.35;45.89;;
38366;Laerm;943;51.568;6.998;2024-01-06T05:35:27;39.54;36.02;45.18;;
38366;Laerm;943;51.568;6.998;2024-01-06T05:38:01;38.26;35.29;46.28;;
38366;Laerm;943;51.568;6.998;2024-01-06T05:40:30;41.19;36.04;61.44;;
38366;Laerm;943;51.568;6.998;2024-01-06T05:43:00;42.45;36.78;60.33;;
38366;Laerm;943;51.568;6.998;2024-01-06T05:45:30;41.17;36.35;52.88;;
38366;Laerm;943;51.568;6.998;2024-01-06T05:48:00;40.59;36.84;52.06;;
38366;Laerm;943;51.568;6.998;2024-01-06T05:50:30;44.92;37.55;62.84;;
38366;Laerm;943;51.568;6.998;2024-01-06T05:53:00;42.93;36.54;55.75;;
38366;Laerm;943;51.568;6.998;2024-01-06T05:55:30;43.09;37.63;61.03;;
38366;Laerm;943;51.568;6.998;2024-01-06T05:58:00;42.90;37.33;61.86;;
38366;Laerm;943;51.568;6.998;2024-01-06T06:00:32;44.64;37.72;66.79;;
38366;Laerm;943;51.568;6.998;2024-01-06T06:03:02;42.24;36.49;60.03;;
38366;Laerm;943;51.568;6.998;2024-01-06T06:05:32;40.82;36.31;50.76;;
38366;Laerm;943;51.568;6.998;2024-01-06T06:08:02;43.45;38.74;55.24;;
38366;Laerm;943;51.568;6.998;2024-01-06T06:11:01;42.99;37.77;52.42;;
38366;Laerm;943;51.568;6.998;2024-01-06T06:13:34;41.72;35.58;50.51;;
38366;Laerm;943;51.568;6.998;2024-01-06T06:16:05;42.29;35.86;58.49;;
38366;Laerm;943;51.568;6.998;2024-01-06T06:18:35;44.90;38.69;59.71;;
38366;Laerm;943;51.568;6.998;2024-01-06T06:21:08;49.18;38.74;67.46;;
38366;Laerm;943;51.568;6.998;2024-01-06T06:23:37;43.24;37.96;59.21;;
38366;Laerm;943;51.568;6.998;2024-01-06T06:26:09;44.29;39.14;57.57;;
38366;Laerm;943;51.568;6.998;2024-01-06T06:28:38;45.42;37.39;63.85;;
38366;Laerm;943;51.568;6.998;2024-01-06T06:31:08;45.06;38.18;65.16;;
38366;Laerm;943;51.568;6.998;2024-01-06T06:33:39;44.95;38.07;64.90;;
38366;Laerm;943;51.568;6.998;2024-01-06T06:36:10;44.96;37.02;60.24;;
38366;Laerm;943;51.568;6.998;2024-01-06T06:38:39;41.94;38.68;52.16;;
38366;Laerm;943;51.568;6.998;2024-01-06T06:41:09;46.61;35.90;67.04;;
38366;Laerm;943;51.568;6.998;2024-01-06T06:43:41;44.00;37.20;64.12;;
38366;Laerm;943;51.568;6.998;2024-01-06T06:46:11;41.79;37.44;48.62;;
38366;Laerm;943;51.568;6.998;2024-01-06T06:48:41;43.76;38.55;57.46;;
38366;Laerm;943;51.568;6.998;2024-01-06T06:51:12;48.50;37.51;65.72;;
38366;Laerm;943;51.568;6.998;2024-01-06T06:53:42;44.94;38.87;60.49;;
38366;Laerm;943;51.568;6.998;2024-01-06T06:56:18;45.50;39.92;58.98;;
38366;Laerm;943;51.568;6.998;2024-01-06T06:58:48;44.12;38.31;60.38;;
38366;Laerm;943;51.568;6.998;2024-01-06T07:01:17;44.56;36.69;62.08;;
38366;Laerm;943;51.568;6.998;2024-01-06T07:03:48;45.83;37.21;64.04;;
38366;Laerm;943;51.568;6.998;2024-01-06T07:06:18;43.64;39.14;57.91;;
38366;Laerm;943;51.568;6.998;2024-01-06T07:08:47;46.49;37.97;60.81;;
38366;Laerm;943;51.568;6.998;2024-01-06T07:11:20;45.12;39.07;59.80;;
38366;Laerm;943;51.568;6.998;2024-01-06T07:13:50;41.51;37.69;47.86;;
38366;Laerm;943;51.568;6.998;2024-01-06T07:16:20;42.23;38.37;50.96;;
38366;Laerm;943;51.568;6.998;2024-01-06T07:18:49;45.11;39.37;58.30;;
38366;Laerm;943;51.568;6.998;2024-01-06T07:21:19;46.29;39.45;64.09;;
38366;Laerm;943;51.568;6.998;2024-01-06T07:23:49;45.96;39.19;63.67;;
38366;Laerm;943;51.568;6.998;2024-01-06T07:26:18;47.11;39.62;62.54;;
38366;Laerm;943;51.568;6.998;2024-01-06T07:28:48;45.31;38.40;66.41;;
38366;Laerm;943;51.568;6.998;2024-01-06T07:31:18;42.84;38.43;51.22;;
38366;Laerm;943;51.568;6.998;2024-01-06T07:33:49;46.70;39.04;64.61;;
38366;Laerm;943;51.568;6.998;2024-01-06T07:36:19;46.72;39.23;68.33;;
38366;Laerm;943;51.568;6.998;2024-01-06T07:38:48;46.49;39.20;62.28;;
38366;Laerm;943;51.568;6.998;2024-01-06T07:41:18;43.39;38.92;52.97;;
38366;Laerm;943;51.568;6.998;2024-01-06T07:43:48;46.28;39.68;63.38;;
38366;Laerm;943;51.568;6.998;2024-01-06T07:46:20;46.30;39.42;57.37;;
38366;Laerm;943;51.568;6.998;2024-01-06T07:48:49;50.33;41.68;59.79;;
38366;Laerm;943;51.568;6.998;2024-01-06T07:51:19;47.25;40.24;61.23;;
38366;Laerm;943;51.568;6.998;2024-01-06T07:53:48;43.73;38.76;62.71;;
38366;Laerm;943;51.568;6.998;2024-01-06T07:56:19;48.01;40.59;68.38;;
38366;Laerm;943;51.568;6.998;2024-01-06T07:58:48;44.20;39.74;59.85;;
38366;Laerm;943;51.568;6.998;2024-01-06T08:01:18;46.30;38.75;66.41;;
38366;Laerm;943;51.568;6.998;2024-01-06T08:03:48;47.22;40.66;63.51;;
38366;Laerm;943;51.568;6.998;2024-01-06T08:06:18;44.60;39.62;54.50;;
38366;Laerm;943;51.568;6.998;2024-01-06T08:08:48;47.19;39.75;63.19;;
38366;Laerm;943;51.568;6.998;2024-01-06T08:11:17;46.33;39.57;61.02;;
38366;Laerm;943;51.568;6.998;2024-01-06T08:13:48;44.47;40.07;55.78;;
38366;Laerm;943;51.568;6.998;2024-01-06T08:16:19;44.33;41.16;56.00;;
38366;Laerm;943;51.568;6.998;2024-01-06T08:18:49;42.44;38.50;48.44;;
38366;Laerm;943;51.568;6.998;2024-01-06T08:21:19;42.38;38.82;50.55;;
38366;Laerm;943;51.568;6.998;2024-01-06T08:23:49;44.87;39.95;56.26;;
38366;Laerm;943;51.568;6.998;2024-01-06T08:26:19;43.80;40.19;48.86;;
38366;Laerm;943;51.568;6.998;2024-01-06T08:28:48;43.50;38.82;52.62;;
38366;Laerm;943;51.568;6.998;2024-01-06T08:31:18;44.78;40.86;59.09;;
38366;Laerm;943;51.568;6.998;2024-01-06T08:33:48;43.77;39.79;58.14;;
38366;Laerm;943;51.568;6.998;2024-01-06T08:36:18;44.43;39.88;56.03;;
38366;Laerm;943;51.568;6.998;2024-01-06T08:38:47;44.52;40.74;56.00;;
38366;Laerm;943;51.568;6.998;2024-01-06T08:41:17;44.56;40.40;57.12;;
38366;Laerm;943;51.568;6.998;2024-01-06T08:43:46;44.43;39.42;61.04;;
38366;Laerm;943;51.568;6.998;2024-01-06T08:46:17;45.35;41.29;52.55;;
38366;Laerm;943;51.568;6.998;2024-01-06T08:48:46;47.53;40.73;60.15;;
38366;Laerm;943;51.568;6.998;2024-01-06T08:51:17;45.92;41.29;62.00;;
38366;Laerm;943;51.568;6.998;2024-01-06T08:53:47;44.38;40.52;55.55;;
38366;Laerm;943;51.568;6.998;2024-01-06T08:56:20;46.32;41.08;63.86;;
38366;Laerm;943;51.568;6.998;2024-01-06T08:58:49;48.70;40.79;62.04;;
38366;Laerm;943;51.568;6.998;2024-01-06T09:01:20;50.19;40.71;63.41;;
38366;Laerm;943;51.568;6.998;2024-01-06T09:03:51;44.14;40.46;53.20;;
38366;Laerm;943;51.568;6.998;2024-01-06T09:06:21;43.82;39.66;56.79;;
38366;Laerm;943;51.568;6.998;2024-01-06T09:08:50;44.71;40.66;56.51;;
38366;Laerm;943;51.568;6.998;2024-01-06T09:11:20;45.65;41.19;60.72;;
38366;Laerm;943;51.568;6.998;2024-01-06T09:13:53;44.42;40.31;52.16;;
38366;Laerm;943;51.568;6.998;2024-01-06T09:16:23;43.18;39.37;55.98;;
38366;Laerm;943;51.568;6.998;2024-01-06T09:18:52;43.49;39.30;50.48;;
38366;Laerm;943;51.568;6.998;2024-01-06T09:21:22;45.46;42.11;52.70;;
38366;Laerm;943;51.568;6.998;2024-01-06T09:23:51;43.26;39.80;51.17;;
38366;Laerm;943;51.568;6.998;2024-01-06T09:26:21;44.68;40.85;54.85;;
38366;Laerm;943;51.568;6.998;2024-01-06T09:28:51;44.64;40.61;60.90;;
38366;Laerm;943;51.568;6.998;2024-01-06T09:31:20;44.82;41.23;60.26;;
38366;Laerm;943;51.568;6.998;2024-01-06T09:33:51;44.24;39.62;54.62;;
38366;Laerm;943;51.568;6.998;2024-01-06T09:36:21;44.71;40.59;54.08;;
38366;Laerm;943;51.568;6.998;2024-01-06T09:38:51;44.69;40.68;59.68;;
38366;Laerm;943;51.568;6.998;2024-01-06T09:41:24;42.83;39.77;48.90;;
38366;Laerm;943;51.568;6.998;2024-01-06T09:43:54;44.51;41.00;54.26;;
38366;Laerm;943;51.568;6.998;2024-01-06T09:46:29;45.70;42.03;58.41;;
38366;Laerm;943;51.568;6.998;2024-01-06T09:49:01;43.26;40.59;48.64;;
38366;Laerm;943;51.568;6.998;2024-01-06T09:51:31;45.39;41.40;61.01;;
38366;Laerm;943;51.568;6.998;2024-01-06T09:54:12;48.65;42.71;57.85;;
38366;Laerm;943;51.568;6.998;2024-01-06T09:56:48;47.19;41.19;58.41;;
38366;Laerm;943;51.568;6.998;2024-01-06T09:59:20;46.45;41.02;57.89;;
38366;Laerm;943;51.568;6.998;2024-01-06T10:01:53;44.91;42.02;59.13;;
38366;Laerm;943;51.568;6.998;2024-01-06T10:04:25;49.93;42.30;66.66;;
38366;Laerm;943;51.568;6.998;2024-01-06T10:06:55;52.07;42.51;67.87;;
38366;Laerm;943;51.568;6.998;2024-01-06T10:09:29;45.15;41.47;52.24;;
38366;Laerm;943;51.568;6.998;2024-01-06T10:12:01;50.98;41.41;67.78;;
38366;Laerm;943;51.568;6.998;2024-01-06T10:14:31;44.45;41.42;48.71;;
38366;Laerm;943;51.568;6.998;2024-01-06T10:17:00;48.34;41.92;62.89;;
38366;Laerm;943;51.568;6.998;2024-01-06T10:19:30;44.97;41.57;57.59;;
38366;Laerm;943;51.568;6.998;2024-01-06T10:22:03;47.77;42.03;57.43;;
38366;Laerm;943;51.568;6.998;2024-01-06T10:24:37;46.62;40.85;57.61;;
38366;Laerm;943;51.568;6.998;2024-01-06T10:27:09;46.70;41.18;64.24;;
38366;Laerm;943;51.568;6.998;2024-01-06T10:29:38;46.66;40.34;64.09;;
38366;Laerm;943;51.568;6.998;2024-01-06T10:32:08;49.14;41.50;73.43;;
38366;Laerm;943;51.568;6.998;2024-01-06T10:34:38;43.92;41.14;51.06;;
38366;Laerm;943;51.568;6.998;2024-01-06T10:37:08;44.93;41.31;52.47;;
38366;Laerm;943;51.568;6.998;2024-01-06T10:39:38;44.72;40.78;49.56;;
38366;Laerm;943;51.568;6.998;2024-01-06T10:42:09;48.30;40.26;64.01;;
38366;Laerm;943;51.568;6.998;2024-01-06T10:44:43;46.20;41.98;55.01;;
38366;Laerm;943;51.568;6.998;2024-01-06T10:47:18;47.85;42.13;59.83;;
38366;Laerm;943;51.568;6.998;2024-01-06T10:49:50;45.14;41.74;55.31;;
38366;Laerm;943;51.568;6.998;2024-01-06T10:52:28;46.00;42.33;54.42;;
38366;Laerm;943;51.568;6.998;2024-01-06T10:54:59;48.27;42.80;59.06;;
38366;Laerm;943;51.568;6.998;2024-01-06T10:57:32;52.23;49.62;56.16;;
38366;Laerm;943;51.568;6.998;2024-01-06T11:00:06;51.51;49.29;55.53;;
38366;Laerm;943;51.568;6.998;2024-01-06T11:02:38;51.53;49.56;55.19;;
38366;Laerm;943;51.568;6.998;2024-01-06T11:05:13;51.52;49.19;57.63;;
38366;Laerm;943;51.568;6.998;2024-01-06T11:07:54;51.84;49.45;63.91;;
38366;Laerm;943;51.568;6.998;2024-01-06T11:10:32;52.02;49.73;57.72;;
38366;Laerm;943;51.568;6.998;2024-01-06T11:13:22;51.92;49.21;58.96;;
38366;Laerm;943;51.568;6.998;2024-01-06T11:15:54;51.21;49.24;56.32;;
38366;Laerm;943;51.568;6.998;2024-01-06T11:18:43;51.86;49.38;66.71;;
38366;Laerm;943;51.568;6.998;2024-01-06T11:21:27;49.41;42.53;58.00;;
38366;Laerm;943;51.568;6.998;2024-01-06T11:24:27;46.47;42.73;63.94;;
38366;Laerm;943;51.568;6.998;2024-01-06T11:27:26;46.02;42.18;57.03;;
38366;Laerm;943;51.568;6.998;2024-01-06T11:30:06;46.40;42.31;57.03;;
38366;Laerm;943;51.568;6.998;2024-01-06T11:32:47;46.65;42.15;63.94;;
38366;Laerm;943;51.568;6.998;2024-01-06T11:35:20;46.86;43.17;71.90;;
38366;Laerm;943;51.568;6.998;2024-01-06T11:37:57;46.08;42.19;60.41;;
38366;Laerm;943;51.568;6.998;2024-01-06T11:40:37;47.03;40.94;57.09;;
38366;Laerm;943;51.568;6.998;2024-01-06T11:43:13;47.48;41.71;68.98;;
38366;Laerm;943;51.568;6.998;2024-01-06T11:45:45;46.81;41.88;64.38;;
38366;Laerm;943;51.568;6.998;2024-01-06T11:48:17;46.37;42.82;65.64;;
38366;Laerm;943;51.568;6.998;2024-01-06T11:50:52;46.62;42.52;60.34;;
38366;Laerm;943;51.568;6.998;2024-01-06T11:53:22;47.23;42.48;61.34;;
38366;Laerm;943;51.568;6.998;2024-01-06T11:55:53;49.14;43.47;63.42;;
38366;Laerm;943;51.568;6.998;2024-01-06T11:58:23;48.70;43.15;66.06;;
38366;Laerm;943;51.568;6.998;2024-01-06T12:00:58;50.24;42.26;75.17;;
38366;Laerm;943;51.568;6.998;2024-01-06T12:03:30;47.62;43.33;63.58;;
38366;Laerm;943;51.568;6.998;2024-01-06T12:06:04;49.40;42.17;73.06;;
38366;Laerm;943;51.568;6.998;2024-01-06T12:08:35;47.41;42.75;68.17;;
38366;Laerm;943;51.568;6.998;2024-01-06T12:11:07;47.79;42.61;64.78;;
38366;Laerm;943;51.568;6.998;2024-01-06T12:13:37;48.61;42.88;63.52;;
38366;Laerm;943;51.568;6.998;2024-01-06T12:16:07;47.46;42.47;61.01;;
38366;Laerm;943;51.568;6.998;2024-01-06T12:18:37;47.68;41.48;65.27;;
38366;Laerm;943;51.568;6.998;2024-01-06T12:21:08;46.58;42.69;58.62;;
38366;Laerm;943;51.568;6.998;2024-01-06T12:23:37;47.94;43.01;65.24;;
38366;Laerm;943;51.568;6.998;2024-01-06T12:26:07;47.29;43.45;59.31;;
38366;Laerm;943;51.568;6.998;2024-01-06T12:28:37;46.33;43.32;55.19;;
38366;Laerm;943;51.568;6.998;2024-01-06T12:31:12;46.01;42.47;63.91;;
38366;Laerm;943;51.568;6.998;2024-01-06T12:33:43;47.59;43.22;60.52;;
38366;Laerm;943;51.568;6.998;2024-01-06T12:36:13;47.42;42.10;63.13;;
38366;Laerm;943;51.568;6.998;2024-01-06T12:38:59;46.58;42.01;58.25;;
38366;Laerm;943;51.568;6.998;2024-01-06T12:41:33;45.66;42.17;61.38;;
38366;Laerm;943;51.568;6.998;2024-01-06T12:44:08;45.75;42.75;55.47;;
38366;Laerm;943;51.568;6.998;2024-01-06T12:46:38;46.58;41.90;68.30;;
38366;Laerm;943;51.568;6.998;2024-01-06T12:49:10;49.18;42.99;64.89;;
38366;Laerm;943;51.568;6.998;2024-01-06T12:51:40;48.53;42.79;74.33;;
38366;Laerm;943;51.568;6.998;2024-01-06T12:54:10;45.55;41.78;56.86;;
38366;Laerm;943;51.568;6.998;2024-01-06T12:56:41;49.98;42.72;66.25;;
38366;Laerm;943;51.568;6.998;2024-01-06T12:59:12;49.27;42.72;66.18;;
38366;Laerm;943;51.568;6.998;2024-01-06T13:01:44;50.29;42.45;66.69;;
38366;Laerm;943;51.568;6.998;2024-01-06T13:04:13;53.76;43.47;78.23;;
38366;Laerm;943;51.568;6.998;2024-01-06T13:06:44;51.93;49.86;57.04;;
38366;Laerm;943;51.568;6.998;2024-01-06T13:09:17;52.03;49.05;68.33;;
38366;Laerm;943;51.568;6.998;2024-01-06T13:11:51;47.81;42.65;66.87;;
38366;Laerm;943;51.568;6.998;2024-01-06T13:14:24;48.69;43.01;62.13;;
38366;Laerm;943;51.568;6.998;2024-01-06T13:16:55;47.40;42.38;62.80;;
38366;Laerm;943;51.568;6.998;2024-01-06T13:19:25;47.11;42.68;69.68;;
38366;Laerm;943;51.568;6.998;2024-01-06T13:21:57;47.67;42.72;62.75;;
38366;Laerm;943;51.568;6.998;2024-01-06T13:24:27;47.92;42.81;61.91;;
38366;Laerm;943;51.568;6.998;2024-01-06T13:27:03;49.35;43.49;63.35;;
38366;Laerm;943;51.568;6.998;2024-01-06T13:29:35;47.68;42.08;65.23;;
38366;Laerm;943;51.568;6.998;2024-01-06T13:32:07;49.56;42.15;69.48;;
38366;Laerm;943;51.568;6.998;2024-01-06T13:34:38;49.54;42.73;68.08;;
38366;Laerm;943;51.568;6.998;2024-01-06T13:37:08;45.66;41.93;65.10;;
38366;Laerm;943;51.568;6.998;2024-01-06T13:39:38;45.32;41.56;68.04;;
38366;Laerm;943;51.568;6.998;2024-01-06T13:42:08;46.86;43.01;58.49;;
38366;Laerm;943;51.568;6.998;2024-01-06T13:44:38;49.51;41.60;63.28;;
38366;Laerm;943;51.568;6.998;2024-01-06T13:47:07;47.03;42.02;72.91;;
38366;Laerm;943;51.568;6.998;2024-01-06T13:49:37;46.66;42.83;54.85;;
38366;Laerm;943;51.568;6.998;2024-01-06T13:52:10;50.23;43.40;74.53;;
38366;Laerm;943;51.568;6.998;2024-01-06T13:54:42;48.68;43.08;64.52;;
38366;Laerm;943;51.568;6.998;2024-01-06T13:57:11;49.66;42.52;78.72;;
38366;Laerm;943;51.568;6.998;2024-01-06T13:59:43;46.43;41.79;61.26;;
38366;Laerm;943;51.568;6.998;2024-01-06T14:02:13;47.12;41.26;71.98;;
38366;Laerm;943;51.568;6.998;2024-01-06T14:04:43;45.81;41.61;60.69;;
38366;Laerm;943;51.568;6.998;2024-01-06T14:07:14;50.93;42.81;69.47;;
38366;Laerm;943;51.568;6.998;2024-01-06T14:09:45;54.32;43.03;76.41;;
38366;Laerm;943;51.568;6.998;2024-01-06T14:12:15;52.08;42.42;71.77;;
38366;Laerm;943;51.568;6.998;2024-01-06T14:14:46;47.94;41.69;67.16;;
38366;Laerm;943;51.568;6.998;2024-01-06T14:17:16;48.20;41.98;68.04;;
38366;Laerm;943;51.568;6.998;2024-01-06T14:19:46;51.93;41.45;75.48;;
38366;Laerm;943;51.568;6.998;2024-01-06T14:22:18;48.27;42.98;71.59;;
38366;Laerm;943;51.568;6.998;2024-01-06T14:24:48;46.34;41.40;58.10;;
38366;Laerm;943;51.568;6.998;2024-01-06T14:27:20;46.26;41.05;64.71;;
38366;Laerm;943;51.568;6.998;2024-01-06T14:29:56;46.03;41.78;56.87;;
38366;Laerm;943;51.568;6.998;2024-01-06T14:32:27;45.66;41.80;50.23;;